CheckWX is a tool to help pilots better visualize weather data.  It is not intended as a substitute for an official pre-flight weather briefing.

09:49:17 UTC

SARI METAR
Cataratas Del Iguazú International Airport
Puerto Iguazu, Argentina
Current

49 mins ago

SARI 070900Z 00000KT 3500 BR FEW025 BKN100 19/19 Q1012
Observed
Jul-7 @ 09:00 UTC
Visibility
3492 meters
Flight Rules
IFR
Conditions
Mist
Cloud Levels
  • Few at 2,500' AGL
  • Broken at 10,000' AGL
Temperature
19°C / 66°F
Dewpoint
19°C / 66°F
Humidity
100%
Altimeter
29.88" Hg
Pressure
1011.92 hPa
Previous

2 hours ago

SARI 070800Z 00000KT 3000 BR FEW025 BKN100 20/20 Q1011
Observed
Jul-7 @ 08:00 UTC
Visibility
2993 meters
Flight Rules
IFR
Conditions
Mist
Cloud Levels
  • Few at 2,500' AGL
  • Broken at 10,000' AGL
Temperature
20°C / 68°F
Dewpoint
20°C / 68°F
Humidity
100%
Altimeter
29.85" Hg
Pressure
1010.92 hPa
Previous

3 hours ago

SARI 070700Z 00000KT 5000 BR FEW025 BKN100 20/20 Q1012
Observed
Jul-7 @ 07:00 UTC
Visibility
5005 meters
Flight Rules
MVFR
Conditions
Mist
Cloud Levels
  • Few at 2,500' AGL
  • Broken at 10,000' AGL
Temperature
20°C / 68°F
Dewpoint
20°C / 68°F
Humidity
100%
Altimeter
29.88" Hg
Pressure
1011.92 hPa